createdAt,value
2022-08-09T00:01:37.307Z,99.90
2022-08-09T00:04:34.784Z,99.90
2022-08-09T00:07:10.627Z,99.90
2022-08-09T00:09:39.193Z,99.90
2022-08-09T00:12:06.708Z,99.90
2022-08-09T00:14:38.106Z,99.90
2022-08-09T00:17:06.922Z,99.90
2022-08-09T00:19:34.780Z,99.90
2022-08-09T00:22:03.603Z,99.90
2022-08-09T00:24:32.207Z,99.90
2022-08-09T00:27:00.593Z,99.90
2022-08-09T00:30:10.290Z,99.90
2022-08-09T00:32:25.474Z,99.90
2022-08-09T00:34:55.642Z,99.90
2022-08-09T00:37:23.072Z,99.90
2022-08-09T00:40:13.865Z,99.90
2022-08-09T00:44:16.063Z,99.90
2022-08-09T00:45:26.832Z,99.90
2022-08-09T00:47:55.486Z,99.90
2022-08-09T00:50:24.070Z,99.90
2022-08-09T00:52:52.766Z,99.90
2022-08-09T00:56:02.962Z,99.90
2022-08-09T00:58:09.094Z,99.90
2022-08-09T01:00:41.110Z,99.90
2022-08-09T01:03:36.522Z,99.90
2022-08-09T01:06:54.747Z,99.90
2022-08-09T01:09:47.649Z,99.90
2022-08-09T01:12:40.541Z,99.90
2022-08-09T01:15:17.581Z,99.90
2022-08-09T01:18:05.022Z,99.90
2022-08-09T01:20:55.140Z,99.90
2022-08-09T01:24:02.941Z,99.90
2022-08-09T01:26:52.903Z,99.90
2022-08-09T01:29:29.503Z,99.90
2022-08-09T01:32:43.907Z,99.90
2022-08-09T01:35:37.299Z,99.90
2022-08-09T01:38:10.792Z,99.90
2022-08-09T01:40:53.119Z,99.90
2022-08-09T01:43:41.965Z,99.90
2022-08-09T01:46:31.624Z,99.90
2022-08-09T01:49:14.666Z,99.90
2022-08-09T01:51:56.313Z,99.90
2022-08-09T01:54:51.719Z,99.90
2022-08-09T01:57:45.687Z,99.90
2022-08-09T02:00:34.888Z,99.90
2022-08-09T02:03:05.089Z,99.90
2022-08-09T02:05:53.337Z,99.90
2022-08-09T02:08:39.436Z,99.90
2022-08-09T02:11:17.100Z,99.90
2022-08-09T02:14:06.389Z,99.90
2022-08-09T02:16:53.284Z,99.90
2022-08-09T02:19:24.972Z,99.90
2022-08-09T02:22:27.370Z,99.90
2022-08-09T02:25:06.828Z,99.90
2022-08-09T02:27:57.486Z,99.90
2022-08-09T02:30:29.313Z,99.90
2022-08-09T02:32:59.431Z,99.90
2022-08-09T02:36:02.632Z,99.90
2022-08-09T02:38:28.833Z,99.90
2022-08-09T02:41:03.233Z,99.90
2022-08-09T02:43:42.401Z,99.90
2022-08-09T02:46:24.322Z,99.90
2022-08-09T02:48:52.564Z,99.90
2022-08-09T02:51:23.173Z,99.90
2022-08-09T02:54:00.995Z,99.90
2022-08-09T02:56:31.678Z,99.90
2022-08-09T02:59:02.220Z,99.90
2022-08-09T03:01:43.030Z,99.90
2022-08-09T03:04:19.920Z,99.90
2022-08-09T03:06:48.850Z,99.90
2022-08-09T03:09:17.698Z,99.90
2022-08-09T03:12:09.644Z,99.90
2022-08-09T03:14:34.207Z,99.90
2022-08-09T03:17:05.471Z,99.90
2022-08-09T03:19:58.853Z,99.90
2022-08-09T03:22:25.630Z,99.90
2022-08-09T03:25:06.749Z,99.90
2022-08-09T03:27:51.883Z,99.90
2022-08-09T03:30:29.781Z,99.90
2022-08-09T03:33:12.724Z,99.90
2022-08-09T03:36:13.114Z,99.90
2022-08-09T03:38:31.804Z,99.90
2022-08-09T03:40:59.101Z,99.90
2022-08-09T03:43:31.668Z,99.90
2022-08-09T03:46:13.645Z,99.90
2022-08-09T03:48:53.815Z,99.90
2022-08-09T03:51:57.700Z,99.90
2022-08-09T03:54:15.768Z,99.90
2022-08-09T03:56:46.642Z,99.90
2022-08-09T03:59:20.965Z,99.90
2022-08-09T04:01:59.480Z,99.90
2022-08-09T04:04:36.049Z,99.90
2022-08-09T04:07:06.438Z,99.90
2022-08-09T04:09:44.544Z,99.90
2022-08-09T04:12:35.757Z,99.90
2022-08-09T04:15:11.395Z,99.90
2022-08-09T04:17:42.331Z,99.90
2022-08-09T04:20:12.342Z,99.90
2022-08-09T04:22:41.376Z,99.90
2022-08-09T04:25:13.162Z,99.90
2022-08-09T04:27:46.674Z,99.90
2022-08-09T04:30:23.526Z,99.90
2022-08-09T04:32:54.199Z,99.90
2022-08-09T04:35:22.063Z,99.90
2022-08-09T04:37:50.056Z,99.90
2022-08-09T04:40:29.034Z,99.90
2022-08-09T04:43:05.435Z,99.90
2022-08-09T04:45:36.001Z,99.90
2022-08-09T04:48:20.096Z,99.90
2022-08-09T04:50:50.095Z,99.90
2022-08-09T04:53:17.556Z,99.90
2022-08-09T04:55:57.988Z,99.90
2022-08-09T04:58:31.588Z,99.90
2022-08-09T05:01:01.466Z,99.90
2022-08-09T05:03:40.390Z,99.90
2022-08-09T05:06:27.249Z,99.90
2022-08-09T05:09:00.474Z,99.90
2022-08-09T05:11:32.366Z,99.90
2022-08-09T05:14:06.277Z,99.90
2022-08-09T05:16:58.351Z,99.90
2022-08-09T05:19:25.786Z,99.90
2022-08-09T05:21:55.340Z,99.90
2022-08-09T05:24:24.529Z,99.90
2022-08-09T05:26:53.021Z,99.90
2022-08-09T05:29:21.735Z,99.90
2022-08-09T05:31:58.858Z,99.90
2022-08-09T05:34:30.701Z,99.90
2022-08-09T05:37:05.896Z,99.90
2022-08-09T05:39:36.229Z,99.90
2022-08-09T05:42:17.826Z,99.90
2022-08-09T05:44:54.019Z,99.90
2022-08-09T05:47:23.866Z,99.90
2022-08-09T05:50:31.137Z,99.90
2022-08-09T05:52:42.478Z,99.90
2022-08-09T05:55:21.032Z,99.90
2022-08-09T05:57:51.115Z,99.90
2022-08-09T06:00:29.728Z,99.90
2022-08-09T06:02:59.581Z,99.90
2022-08-09T06:05:30.839Z,99.90
2022-08-09T06:08:19.159Z,99.90
2022-08-09T06:10:49.824Z,99.90
2022-08-09T06:13:20.657Z,99.90
2022-08-09T06:15:51.294Z,99.90
2022-08-09T06:18:24.962Z,99.90
2022-08-09T06:20:57.793Z,99.90
2022-08-09T06:23:58.266Z,99.90
2022-08-09T06:26:20.225Z,99.90
2022-08-09T06:29:00.147Z,99.90
2022-08-09T06:31:40.285Z,99.90
2022-08-09T06:34:22.977Z,99.90
2022-08-09T06:36:57.479Z,99.90
2022-08-09T06:39:57.401Z,99.90
2022-08-09T06:42:17.213Z,99.90
2022-08-09T06:44:51.879Z,99.90
2022-08-09T06:47:22.531Z,99.90
2022-08-09T06:50:14.969Z,99.90
2022-08-09T06:52:45.900Z,99.90
2022-08-09T06:55:23.120Z,99.90
2022-08-09T06:58:03.159Z,99.90
2022-08-09T07:00:49.649Z,99.90
2022-08-09T07:03:19.545Z,99.90
2022-08-09T07:06:03.756Z,99.90
2022-08-09T07:08:34.689Z,99.90
2022-08-09T07:11:06.411Z,99.90
2022-08-09T07:13:44.969Z,99.90
2022-08-09T07:16:42.522Z,99.90
2022-08-09T07:19:15.629Z,99.90
2022-08-09T07:21:56.938Z,99.90
2022-08-09T07:24:32.357Z,99.90
2022-08-09T07:27:10.921Z,99.90
2022-08-09T07:29:57.040Z,99.90
2022-08-09T07:32:32.146Z,99.90
2022-08-09T07:35:08.225Z,99.90
2022-08-09T07:37:40.522Z,99.90
2022-08-09T07:40:18.669Z,99.90
2022-08-09T07:42:59.096Z,99.90
2022-08-09T07:45:37.829Z,99.90
2022-08-09T07:48:06.791Z,99.90
2022-08-09T07:50:36.782Z,99.90
2022-08-09T07:53:05.304Z,99.90
2022-08-09T07:56:03.648Z,99.90
2022-08-09T07:58:26.033Z,99.90
2022-08-09T08:00:58.650Z,99.90
2022-08-09T08:03:36.884Z,99.90
2022-08-09T08:06:05.487Z,99.90
2022-08-09T08:09:01.019Z,99.90
2022-08-09T08:12:10.818Z,99.90
2022-08-09T08:14:07.198Z,99.70
2022-08-09T08:16:36.420Z,99.00
2022-08-09T08:19:06.846Z,97.10
2022-08-09T08:21:34.047Z,95.90
2022-08-09T08:24:12.180Z,95.40
2022-08-09T08:26:55.898Z,94.60
2022-08-09T08:29:28.147Z,94.90
2022-08-09T08:32:03.883Z,94.10
2022-08-09T08:34:34.540Z,94.00
2022-08-09T08:37:05.205Z,94.30
2022-08-09T08:39:32.958Z,93.50
2022-08-09T08:42:07.482Z,93.40
2022-08-09T08:44:39.426Z,93.10
2022-08-09T08:47:12.390Z,93.20
2022-08-09T08:49:48.622Z,91.50
2022-08-09T08:52:52.626Z,91.10
2022-08-09T08:55:08.552Z,91.60
2022-08-09T08:57:37.543Z,91.80
2022-08-09T09:00:08.231Z,91.60
2022-08-09T09:02:49.979Z,91.20
2022-08-09T09:05:26.321Z,90.60
2022-08-09T09:08:03.007Z,86.70
2022-08-09T09:10:31.990Z,84.50
2022-08-09T09:12:59.478Z,82.80
2022-08-09T09:15:38.385Z,81.80
2022-08-09T09:18:10.216Z,82.10
2022-08-09T09:20:38.745Z,81.50
2022-08-09T09:23:05.909Z,81.50
2022-08-09T09:26:01.411Z,79.60
2022-08-09T09:29:01.732Z,79.10
2022-08-09T09:32:01.496Z,78.80
2022-08-09T09:34:15.282Z,79.80
2022-08-09T09:36:52.873Z,79.90
2022-08-09T09:39:23.593Z,80.00
2022-08-09T09:42:24.626Z,79.50
2022-08-09T09:45:03.732Z,78.80
2022-08-09T09:47:32.410Z,78.90
2022-08-09T09:50:15.734Z,79.40
2022-08-09T09:52:56.282Z,79.00
2022-08-09T09:55:32.089Z,79.10
2022-08-09T09:58:15.647Z,78.40
2022-08-09T10:00:52.789Z,78.60
2022-08-09T10:03:57.545Z,78.30
2022-08-09T10:06:42.638Z,76.90
2022-08-09T10:09:22.866Z,77.40
2022-08-09T10:12:12.563Z,78.30
2022-08-09T10:14:50.045Z,77.80
2022-08-09T10:17:54.839Z,77.40
2022-08-09T10:20:26.889Z,77.20
2022-08-09T10:23:20.012Z,75.80
2022-08-09T10:26:06.124Z,76.50
2022-08-09T10:28:38.381Z,76.50
2022-08-09T10:34:18.854Z,76.30
2022-08-09T10:36:50.347Z,76.00
2022-08-09T10:39:23.386Z,76.80
2022-08-09T10:41:55.871Z,75.60
2022-08-09T10:44:26.270Z,75.00
2022-08-09T10:47:41.653Z,75.10
2022-08-09T10:50:30.837Z,74.10
2022-08-09T10:53:19.789Z,73.50
2022-08-09T10:55:58.538Z,73.10
2022-08-09T10:58:37.999Z,72.50
2022-08-09T11:03:13.560Z,72.30
2022-08-09T11:04:27.796Z,73.00
2022-08-09T11:06:59.797Z,71.80
2022-08-09T11:09:47.727Z,72.20
2022-08-09T11:12:29.913Z,71.70
2022-08-09T11:15:01.524Z,71.70
2022-08-09T11:17:32.461Z,71.20
2022-08-09T11:20:22.641Z,71.90
2022-08-09T11:22:56.850Z,71.40
2022-08-09T11:25:44.995Z,71.70
2022-08-09T11:28:38.344Z,69.90
2022-08-09T11:31:36.965Z,69.30
2022-08-09T11:34:10.532Z,70.10
2022-08-09T11:36:43.039Z,68.70
2022-08-09T11:39:11.802Z,67.80
2022-08-09T11:41:40.686Z,67.40
2022-08-09T11:44:08.675Z,67.30
2022-08-09T11:47:05.455Z,67.30
2022-08-09T11:50:56.199Z,67.00
2022-08-09T11:53:15.576Z,68.60
2022-08-09T11:55:53.632Z,71.40
2022-08-09T11:58:33.176Z,74.90
2022-08-09T12:01:15.399Z,77.50
2022-08-09T12:04:01.478Z,80.60
2022-08-09T12:06:32.030Z,84.10
2022-08-09T12:09:05.951Z,87.80
2022-08-09T12:12:03.375Z,90.40
2022-08-09T12:14:41.099Z,91.80
2022-08-09T12:17:34.065Z,94.80
2022-08-09T12:20:21.974Z,97.30
2022-08-09T12:22:55.951Z,98.80
2022-08-09T12:25:37.005Z,99.60
2022-08-09T12:29:13.479Z,99.20
2022-08-09T12:31:30.998Z,99.20
2022-08-09T12:34:10.722Z,99.20
2022-08-09T12:36:59.160Z,99.30
2022-08-09T12:39:37.770Z,99.20
2022-08-09T12:42:16.675Z,99.10
2022-08-09T12:44:46.378Z,99.10
2022-08-09T12:47:23.108Z,98.20
2022-08-09T12:50:09.504Z,97.70
2022-08-09T12:52:58.416Z,97.20
2022-08-09T12:56:14.375Z,96.00
2022-08-09T12:58:27.954Z,94.40
2022-08-09T13:00:56.447Z,94.00
2022-08-09T13:03:57.241Z,92.90
2022-08-09T13:06:47.619Z,92.00
2022-08-09T13:09:25.007Z,91.40
2022-08-09T13:12:02.030Z,90.90
2022-08-09T13:14:41.500Z,90.60
2022-08-09T13:17:33.628Z,90.00
2022-08-09T13:20:17.464Z,87.90
2022-08-09T13:23:05.781Z,87.80
2022-08-09T13:25:52.678Z,87.00
2022-08-09T13:28:34.659Z,86.20
2022-08-09T13:32:17.562Z,85.60
2022-08-09T13:34:01.952Z,85.30
2022-08-09T13:36:41.070Z,85.60
2022-08-09T13:41:17.171Z,85.60
2022-08-09T13:42:11.042Z,84.90
2022-08-09T13:44:42.819Z,84.70
2022-08-09T13:47:26.819Z,85.00
2022-08-09T13:50:12.470Z,85.20
2022-08-09T13:52:47.664Z,85.70
2022-08-09T13:55:15.433Z,85.70
2022-08-09T13:57:56.156Z,86.30
2022-08-09T14:00:28.731Z,86.50
2022-08-09T14:03:02.958Z,85.70
2022-08-09T14:06:00.525Z,84.70
2022-08-09T14:08:32.601Z,84.20
2022-08-09T14:11:01.192Z,83.30
2022-08-09T14:14:24.007Z,82.50
2022-08-09T14:16:19.040Z,81.50
2022-08-09T14:18:50.321Z,80.80
2022-08-09T14:21:20.910Z,80.90
2022-08-09T14:23:54.005Z,79.60
2022-08-09T14:26:32.246Z,79.40
2022-08-09T14:29:25.742Z,80.50
2022-08-09T14:31:55.594Z,78.70
2022-08-09T14:34:31.724Z,77.90
2022-08-09T14:37:02.127Z,77.80
2022-08-09T14:39:40.311Z,75.10
2022-08-09T14:42:28.861Z,73.80
2022-08-09T14:44:59.321Z,74.40
2022-08-09T14:47:44.755Z,73.30
2022-08-09T14:50:17.448Z,73.50
2022-08-09T14:52:49.965Z,72.80
2022-08-09T14:55:20.404Z,72.20
2022-08-09T14:57:49.066Z,72.10
2022-08-09T15:00:17.243Z,71.80
2022-08-09T15:02:47.255Z,71.00
2022-08-09T15:05:16.860Z,70.20
2022-08-09T15:07:45.643Z,70.20
2022-08-09T15:10:25.655Z,69.60
2022-08-09T15:12:54.042Z,69.00
2022-08-09T15:15:22.119Z,69.40
2022-08-09T15:17:52.372Z,69.60
2022-08-09T15:21:54.744Z,69.70
2022-08-09T15:24:02.107Z,70.00
2022-08-09T15:25:58.602Z,71.20
2022-08-09T15:28:28.312Z,70.90
2022-08-09T15:31:10.065Z,70.20
2022-08-09T15:34:27.432Z,70.40
2022-08-09T15:36:30.442Z,71.10
2022-08-09T15:38:59.866Z,71.30
2022-08-09T15:41:31.934Z,70.80
2022-08-09T15:44:03.676Z,70.30
2022-08-09T15:46:33.125Z,70.40
2022-08-09T15:49:22.375Z,70.20
2022-08-09T15:52:03.160Z,70.40
2022-08-09T15:54:48.991Z,70.30
2022-08-09T15:57:18.729Z,69.90
2022-08-09T15:59:51.576Z,69.80
2022-08-09T16:02:19.432Z,70.00
2022-08-09T16:04:54.732Z,70.40
2022-08-09T16:07:21.872Z,70.70
2022-08-09T16:09:57.953Z,71.30
2022-08-09T16:12:33.242Z,72.00
2022-08-09T16:15:02.119Z,72.80
2022-08-09T16:17:29.574Z,72.20
2022-08-09T16:20:04.563Z,72.20
2022-08-09T16:22:42.315Z,71.90
2022-08-09T16:25:16.384Z,71.90
2022-08-09T16:28:04.112Z,71.70
2022-08-09T16:30:32.351Z,71.90
2022-08-09T16:33:09.054Z,71.80
2022-08-09T16:35:56.748Z,72.20
2022-08-09T16:38:25.778Z,72.20
2022-08-09T16:40:53.439Z,72.20
2022-08-09T16:43:22.653Z,72.00
2022-08-09T16:45:53.642Z,71.70
2022-08-09T16:48:38.942Z,71.50
2022-08-09T16:51:14.036Z,71.40
2022-08-09T16:56:35.024Z,72.00
2022-08-09T16:59:06.864Z,72.60
2022-08-09T17:01:38.677Z,72.90
2022-08-09T17:04:06.550Z,73.20
2022-08-09T17:08:40.156Z,73.50
2022-08-09T17:09:45.708Z,73.80
2022-08-09T17:12:09.566Z,74.40
2022-08-09T17:14:36.922Z,75.00
2022-08-09T17:17:25.839Z,75.40
2022-08-09T17:20:32.387Z,76.10
2022-08-09T17:22:50.305Z,76.70
2022-08-09T17:25:22.127Z,77.20
2022-08-09T17:27:54.116Z,78.00
2022-08-09T17:30:28.822Z,78.70
2022-08-09T17:33:04.785Z,79.10
2022-08-09T17:35:35.621Z,79.30
2022-08-09T17:38:14.013Z,79.60
2022-08-09T17:41:00.762Z,80.10
2022-08-09T17:43:34.121Z,80.30
2022-08-09T17:46:09.439Z,80.50
2022-08-09T17:48:40.542Z,81.00
2022-08-09T17:51:20.690Z,81.50
2022-08-09T17:53:53.341Z,81.90
2022-08-09T17:56:28.450Z,82.50
2022-08-09T17:59:03.057Z,83.10
2022-08-09T18:01:58.076Z,83.60
2022-08-09T18:04:23.964Z,84.20
2022-08-09T18:06:55.056Z,84.90
2022-08-09T18:09:35.693Z,85.50
2022-08-09T18:12:15.058Z,86.30
2022-08-09T18:14:53.334Z,86.30
2022-08-09T18:17:27.313Z,86.90
2022-08-09T18:20:54.435Z,87.70
2022-08-09T18:23:04.723Z,88.50
2022-08-09T18:25:53.311Z,89.10
2022-08-09T18:30:35.022Z,89.50
2022-08-09T18:31:12.225Z,90.10
2022-08-09T18:33:40.177Z,90.40
2022-08-09T18:36:09.145Z,90.70
2022-08-09T18:38:57.326Z,91.00
2022-08-09T18:41:28.490Z,91.50
2022-08-09T18:43:55.971Z,91.90
2022-08-09T18:46:47.020Z,92.40
2022-08-09T18:49:10.604Z,92.90
2022-08-09T18:51:38.529Z,93.00
2022-08-09T18:54:29.699Z,93.30
2022-08-09T18:57:05.367Z,93.80
2022-08-09T18:59:43.904Z,94.00
2022-08-09T19:02:18.005Z,94.40
2022-08-09T19:04:47.399Z,94.80
2022-08-09T19:07:16.241Z,95.10
2022-08-09T19:10:17.041Z,95.50
2022-08-09T19:12:36.962Z,95.80
2022-08-09T19:15:07.075Z,95.90
2022-08-09T19:17:39.745Z,96.20
2022-08-09T19:20:23.824Z,96.50
2022-08-09T19:22:54.375Z,96.80
2022-08-09T19:25:41.395Z,97.00
2022-08-09T19:28:13.279Z,97.20
2022-08-09T19:30:44.314Z,97.50
2022-08-09T19:33:19.310Z,97.80
2022-08-09T19:35:57.085Z,98.00
2022-08-09T19:38:27.332Z,98.20
2022-08-09T19:40:57.559Z,98.60
2022-08-09T19:44:01.853Z,98.90
2022-08-09T19:46:15.636Z,99.40
2022-08-09T19:49:00.943Z,99.50
2022-08-09T19:51:30.949Z,99.80
2022-08-09T19:54:00.186Z,99.90
2022-08-09T19:56:29.329Z,99.90
2022-08-09T19:59:40.171Z,99.90
2022-08-09T20:01:52.555Z,99.90
2022-08-09T20:04:37.452Z,99.90
2022-08-09T20:07:21.392Z,99.90
2022-08-09T20:09:49.929Z,99.90
2022-08-09T20:12:37.531Z,99.90
2022-08-09T20:16:31.791Z,99.90
2022-08-09T20:17:54.805Z,99.90
2022-08-09T20:20:22.347Z,99.90
2022-08-09T20:22:56.111Z,99.90
2022-08-09T20:25:24.283Z,99.90
2022-08-09T20:27:52.856Z,99.90
2022-08-09T20:30:23.874Z,99.90
2022-08-09T20:32:52.912Z,99.90
2022-08-09T20:35:21.677Z,99.90
2022-08-09T20:38:20.752Z,99.90
2022-08-09T20:40:37.346Z,99.90
2022-08-09T20:43:18.601Z,99.90
2022-08-09T20:45:59.104Z,99.90
2022-08-09T20:48:31.247Z,99.90
2022-08-09T20:51:00.061Z,99.90
2022-08-09T20:53:35.430Z,99.90
2022-08-09T20:56:09.741Z,99.90
2022-08-09T20:58:57.917Z,99.90
2022-08-09T21:01:34.590Z,99.90
2022-08-09T21:05:57.786Z,99.90
2022-08-09T21:07:11.752Z,99.90
2022-08-09T21:09:56.730Z,99.90
2022-08-09T21:15:14.626Z,99.90
2022-08-09T21:18:22.932Z,99.90
2022-08-09T21:20:31.648Z,99.90
2022-08-09T21:23:00.796Z,99.90
2022-08-09T21:25:56.197Z,99.90
2022-08-09T21:28:34.872Z,99.90
2022-08-09T21:31:13.685Z,99.90
2022-08-09T21:33:52.468Z,99.90
2022-08-09T21:36:27.835Z,99.90
2022-08-09T21:38:57.338Z,99.90
2022-08-09T21:42:05.814Z,99.90
2022-08-09T21:44:15.293Z,99.90
2022-08-09T21:46:59.727Z,99.90
2022-08-09T21:49:39.248Z,99.90
2022-08-09T21:52:16.647Z,99.90
2022-08-09T21:54:50.899Z,99.90
2022-08-09T21:57:38.356Z,99.90
2022-08-09T22:00:17.496Z,99.90
2022-08-09T22:02:58.187Z,99.90
2022-08-09T22:05:35.935Z,99.90
2022-08-09T22:08:12.801Z,99.90
2022-08-09T22:11:48.868Z,99.90
2022-08-09T22:13:31.600Z,99.90
2022-08-09T22:16:07.676Z,99.90
2022-08-09T22:18:44.178Z,99.90
2022-08-09T22:21:45.011Z,99.90
2022-08-09T22:24:17.297Z,99.90
2022-08-09T22:26:51.768Z,99.90
2022-08-09T22:29:26.804Z,99.90
2022-08-09T22:31:59.910Z,99.90
2022-08-09T22:34:27.413Z,99.90
2022-08-09T22:36:55.938Z,99.90
2022-08-09T22:39:57.462Z,99.90
2022-08-09T22:42:20.849Z,99.90
2022-08-09T22:48:06.243Z,99.90
2022-08-09T22:48:12.674Z,99.90
2022-08-09T22:50:30.109Z,99.90
2022-08-09T22:52:58.719Z,99.90
2022-08-09T22:55:39.303Z,99.90
2022-08-09T22:58:30.521Z,99.90
2022-08-09T23:00:58.354Z,99.90
2022-08-09T23:04:04.815Z,99.90
2022-08-09T23:06:14.208Z,99.90
2022-08-09T23:08:45.293Z,99.90
2022-08-09T23:11:17.343Z,99.90
2022-08-09T23:13:49.810Z,99.90
2022-08-09T23:16:18.664Z,99.90
2022-08-09T23:18:46.701Z,99.90
2022-08-09T23:21:15.644Z,99.90
2022-08-09T23:24:05.109Z,99.90
2022-08-09T23:26:35.605Z,99.90
2022-08-09T23:29:04.481Z,99.90
2022-08-09T23:31:31.879Z,99.90
2022-08-09T23:33:59.649Z,99.90
2022-08-09T23:36:27.176Z,99.90
2022-08-09T23:38:54.289Z,99.90
2022-08-09T23:41:27.834Z,99.90
2022-08-09T23:43:57.891Z,99.90
2022-08-09T23:46:25.991Z,99.90
2022-08-09T23:48:53.156Z,99.90
2022-08-09T23:51:20.376Z,99.90
2022-08-09T23:53:50.598Z,99.90
2022-08-09T23:56:52.775Z,99.90
2022-08-09T23:59:07.302Z,99.90
